Time;durP1;ratioP1;P1;durP2;ratioP2;P2;SDS_P1;SDS_P2;PMS_P1;PMS_P2;Temp;Humidity;BMP_temperature;BMP_pressure;BME280_temperature;BME280_humidity;BME280_pressure;Samples;Min_cycle;Max_cycle;Signal;HPM_P1;HPM_P2
2022/07/24 00:00:13;;;;;;;;;;;;;;;22.00;52.85;100794.59;4972113;28;19916;-67
2022/07/24 00:02:38;;;;;;;;;;;;;;;22.01;52.11;100794.38;4967409;28;19925;-67
2022/07/24 00:05:03;;;;;;;;;;;;;;;22.03;52.08;100794.16;4970309;28;20299;-67
2022/07/24 00:07:29;;;;;;;;;;;;;;;22.02;52.19;100800.59;4968799;28;20032;-67
2022/07/24 00:09:54;;;;;;;;;;;;;;;22.02;51.69;100796.03;4969598;28;20141;-66
2022/07/24 00:12:19;;;;;;;;;;;;;;;21.96;51.71;100788.03;4969097;28;19914;-68
2022/07/24 00:14:44;;;;;;;;;;;;;;;21.96;51.34;100788.84;4970442;28;20438;-67
2022/07/24 00:17:10;;;;;;;;;;;;;;;21.92;51.62;100789.50;4968861;28;20025;-67
2022/07/24 00:19:36;;;;;;;;;;;;;;;21.87;51.64;100792.03;4967755;28;20499;-66
2022/07/24 00:22:02;;;;;;;;;;;;;;;21.84;51.50;100788.72;4970365;28;20110;-67
2022/07/24 00:24:28;;;;;;;;;;;;;;;21.82;51.23;100788.13;4967074;28;20226;-67
2022/07/24 00:26:53;;;;;;;;;;;;;;;21.78;51.61;100792.28;4969813;28;19918;-68
2022/07/24 00:29:19;;;;;;;;;;;;;;;21.73;52.29;100785.94;4968861;28;19922;-67
2022/07/24 00:31:45;;;;;;;;;;;;;;;21.60;53.15;100784.97;4967394;28;20383;-66
2022/07/24 00:34:11;;;;;;;;;;;;;;;21.51;53.40;100786.28;4967280;28;19924;-67
2022/07/24 00:36:37;;;;;;;;;;;;;;;21.40;54.35;100787.81;4967776;28;19930;-66
2022/07/24 00:39:03;;;;;;;4.53;3.80;;;;;;;21.31;53.66;100778.31;4967393;28;19973;-65
2022/07/24 00:41:29;;;;;;;6.50;4.70;;;;;;;21.20;54.91;100779.81;4965384;28;20110;-66
2022/07/24 00:44:04;;;;;;;5.45;4.40;;;;;;;21.16;54.80;100781.28;4965666;28;20039;-65
2022/07/24 00:46:31;;;;;;;5.60;4.50;;;;;;;21.17;54.32;100774.88;4964845;28;20082;-65
2022/07/24 00:48:58;;;;;;;5.60;4.10;;;;;;;21.19;54.32;100778.19;4964159;28;20093;-66
2022/07/24 00:51:24;;;;;;;5.63;4.43;;;;;;;21.20;54.15;100771.75;4963205;28;20031;-65
2022/07/24 00:53:51;;;;;;;5.45;4.20;;;;;;;21.18;54.16;100773.84;4967060;28;20054;-66
2022/07/24 00:56:17;;;;;;;5.25;4.10;;;;;;;21.16;54.31;100775.91;4966776;28;20403;-65
2022/07/24 00:58:46;;;;;;;4.97;4.47;;;;;;;21.14;54.47;100779.84;4968403;28;20039;-65
2022/07/24 01:01:12;;;;;;;4.50;3.90;;;;;;;21.12;54.68;100779.28;4968809;28;20066;-66
2022/07/24 01:03:38;;;;;;;4.57;4.00;;;;;;;21.09;54.87;100785.88;4971959;28;20042;-65
2022/07/24 01:06:06;;;;;;;5.13;4.15;;;;;;;21.01;54.94;100778.06;4972434;28;20037;-66
2022/07/24 01:08:36;;;;;;;4.63;3.75;;;;;;;20.94;55.21;100782.66;4971088;28;20399;-65
2022/07/24 01:11:07;;;;;;;3.40;3.10;;;;;;;20.95;55.38;100787.84;4968275;28;20765;-65
2022/07/24 01:13:33;;;;;;;4.85;3.65;;;;;;;20.80;55.76;100776.50;4970814;28;20073;-66
2022/07/24 01:16:00;;;;;;;5.93;4.05;;;;;;;20.76;56.20;100780.66;4971723;28;20038;-65
2022/07/24 01:18:25;;;;;;;5.47;4.22;;;;;;;20.74;56.34;100780.88;4969766;28;20031;-65
2022/07/24 01:20:52;;;;;;;5.63;4.40;;;;;;;20.71;56.36;100780.47;4971739;28;20510;-65
2022/07/24 01:23:18;;;;;;;5.90;4.07;;;;;;;20.64;56.85;100779.66;4961156;28;20046;-65
2022/07/24 01:25:44;;;;;;;5.53;4.40;;;;;;;20.66;56.77;100788.34;4965175;28;20602;-66
2022/07/24 01:28:10;;;;;;;6.43;4.53;;;;;;;20.68;56.41;100784.41;4957320;28;20039;-66
2022/07/24 01:30:37;;;;;;;5.88;5.00;;;;;;;20.61;57.07;100780.91;4970033;28;20054;-66
2022/07/24 01:33:03;;;;;;;5.00;4.20;;;;;;;20.51;57.53;100775.97;4953651;28;20086;-65
2022/07/24 01:35:29;;;;;;;4.90;4.35;;;;;;;20.44;58.19;100777.84;4971078;28;20085;-65
2022/07/24 01:37:56;;;;;;;5.30;4.50;;;;;;;20.37;57.93;100783.22;4971015;28;20728;-65
2022/07/24 01:40:23;;;;;;;4.70;4.18;;;;;;;20.29;58.52;100775.41;4958485;28;20129;-65
2022/07/24 01:42:52;;;;;;;5.00;4.38;;;;;;;20.21;59.21;100783.66;4954485;28;20026;-65
2022/07/24 01:45:19;;;;;;;6.20;4.32;;;;;;;20.15;58.87;100776.47;4971268;28;20038;-65
2022/07/24 01:47:45;;;;;;;5.80;4.68;;;;;;;20.05;60.11;100779.56;4971136;28;20030;-65
2022/07/24 01:50:12;;;;;;;5.78;4.53;;;;;;;19.99;59.31;100777.69;4969911;28;20074;-66
2022/07/24 01:52:39;;;;;;;5.20;4.00;;;;;;;19.91;59.49;100776.06;4970854;28;20555;-65
2022/07/24 01:55:05;;;;;;;;;;;;;;;19.81;60.67;100774.84;4960813;28;20043;-65
2022/07/24 01:57:31;;;;;;;;;;;;;;;19.70;60.23;100776.28;4971605;28;19918;-65
2022/07/24 01:59:58;;;;;;;4.88;3.83;;;;;;;19.64;60.61;100775.22;4969840;28;19921;-65
2022/07/24 02:02:25;;;;;;;4.93;4.20;;;;;;;19.57;60.67;100789.63;4970154;28;20045;-65
2022/07/24 02:04:51;;;;;;;5.05;4.18;;;;;;;19.49;61.04;100786.09;4968204;28;20685;-65
2022/07/24 02:07:21;;;;;;;4.18;3.78;;;;;;;19.44;60.65;100779.72;4968159;28;20049;-65
2022/07/24 02:09:47;;;;;;;4.72;3.90;;;;;;;19.53;61.27;100786.53;4966600;28;20483;-65
2022/07/24 02:12:13;;;;;;;4.25;3.83;;;;;;;19.44;61.87;100785.09;4968495;28;20035;-65
2022/07/24 02:14:39;;;;;;;5.53;4.13;;;;;;;19.39;62.29;100780.31;4968431;28;20049;-65
2022/07/24 02:17:05;;;;;;;5.30;3.97;;;;;;;19.34;61.95;100779.28;4967732;28;20503;-65
2022/07/24 02:19:33;;;;;;;4.15;3.50;;;;;;;19.30;61.67;100778.84;4968120;28;20562;-65
2022/07/24 02:21:58;;;;;;;4.28;3.67;;;;;;;19.26;61.89;100785.69;4968811;28;20403;-65
2022/07/24 02:24:24;;;;;;;4.60;4.07;;;;;;;19.29;61.41;100778.03;4966535;28;20039;-65
2022/07/24 02:26:51;;;;;;;3.50;3.15;;;;;;;19.49;60.85;100786.09;4965527;28;20423;-65
2022/07/24 02:29:17;;;;;;;3.20;2.90;;;;;;;19.66;60.35;100781.19;4966228;28;20417;-65
2022/07/24 02:31:43;;;;;;;3.40;2.90;;;;;;;19.79;60.15;100782.25;4965775;28;20831;-66
2022/07/24 02:34:10;;;;;;;4.22;3.15;;;;;;;19.73;60.28;100787.44;4967817;28;20145;-65
2022/07/24 02:36:36;;;;;;;5.20;3.45;;;;;;;19.76;59.73;100782.66;4966629;28;20077;-65
2022/07/24 02:39:03;;;;;;;4.10;3.10;;;;;;;19.81;59.56;100789.06;4966867;28;20122;-65
2022/07/24 02:41:30;;;;;;;5.18;4.10;;;;;;;19.91;58.56;100788.66;4983073;28;20471;-65
2022/07/24 02:43:55;;;;;;;4.60;3.80;;;;;;;20.00;58.01;100781.19;4967019;28;20515;-65
2022/07/24 02:46:22;;;;;;;5.13;4.13;;;;;;;20.07;57.43;100777.50;4969711;28;20038;-65
2022/07/24 02:48:48;;;;;;;5.72;4.40;;;;;;;20.11;57.68;100784.09;4969090;28;20090;-65
2022/07/24 02:51:13;;;;;;;4.85;3.67;;;;;;;20.13;57.38;100775.84;4950360;28;20038;-65
2022/07/24 02:53:40;;;;;;;4.53;3.67;;;;;;;20.26;57.20;100789.25;4962138;28;20476;-65
2022/07/24 02:56:06;;;;;;;4.43;3.40;;;;;;;20.34;56.73;100783.66;4979618;28;20490;-65
2022/07/24 02:58:33;;;;;;;4.35;3.47;;;;;;;20.29;57.05;100785.31;4965600;28;20035;-65
2022/07/24 03:00:59;;;;;;;6.18;4.05;;;;;;;20.29;56.84;100783.47;4981768;28;20049;-65
2022/07/24 03:03:25;;;;;;;;;;;;;;;20.25;57.10;100784.91;4967403;28;20042;-65
2022/07/24 03:05:51;;;;;;;4.78;4.00;;;;;;;20.24;56.93;100795.88;4983839;28;20417;-65
2022/07/24 03:08:16;;;;;;;4.07;3.30;;;;;;;20.21;56.86;100794.41;4964590;28;20070;-66
2022/07/24 03:10:43;;;;;;;5.00;4.05;;;;;;;20.19;56.86;100791.13;4968136;28;20038;-65
2022/07/24 03:13:09;;;;;;;4.32;3.78;;;;;;;20.17;56.78;100787.81;4968141;28;20066;-65
2022/07/24 03:15:36;;;;;;;3.83;3.30;;;;;;;20.13;57.06;100797.31;4966865;28;20125;-65
2022/07/24 03:18:02;;;;;;;4.20;3.50;;;;;;;20.03;57.54;100792.38;4967662;28;20035;-65
2022/07/24 03:20:29;;;;;;;4.50;3.35;;;;;;;19.92;58.53;100801.03;4968124;28;20062;-65
2022/07/24 03:22:56;;;;;;;4.30;3.53;;;;;;;19.84;58.39;100794.03;4967175;28;20042;-65
2022/07/24 03:25:21;;;;;;;5.07;3.83;;;;;;;19.83;58.44;100799.59;4968544;28;20130;-65
2022/07/24 03:27:51;;;;;;;5.13;3.88;;;;;;;19.78;58.78;100794.00;4967355;28;20035;-65
2022/07/24 03:30:18;;;;;;;4.63;3.85;;;;;;;19.79;58.63;100798.38;4980161;28;20043;-65
2022/07/24 03:32:47;;;;;;;5.03;3.75;;;;;;;19.80;58.57;100797.31;4966233;28;20242;-65
2022/07/24 03:35:13;;;;;;;4.22;3.50;;;;;;;19.82;58.14;100803.31;4968400;28;20511;-65
2022/07/24 03:37:39;;;;;;;4.57;3.70;;;;;;;19.83;58.38;100805.81;4967227;28;20039;-65
2022/07/24 03:40:05;;;;;;;4.88;4.00;;;;;;;19.80;58.79;100802.69;4963402;28;20042;-66
2022/07/24 03:42:32;;;;;;;6.22;4.43;;;;;;;19.80;58.70;100800.00;4966440;28;20494;-65
2022/07/24 03:44:58;;;;;;;5.65;4.22;;;;;;;19.78;59.29;100799.38;4965055;28;20035;-65
2022/07/24 03:47:24;;;;;;;5.95;4.70;;;;;;;19.75;59.44;100799.81;4967666;28;20466;-65
2022/07/24 03:49:51;;;;;;;4.68;4.15;;;;;;;19.75;59.19;100797.13;4965985;28;20081;-65
2022/07/24 03:52:17;;;;;;;6.22;3.92;;;;;;;19.77;59.11;100801.25;4967249;28;20035;-65
2022/07/24 03:54:43;;;;;;;4.60;3.80;;;;;;;19.77;59.22;100811.97;4968580;28;20481;-65
2022/07/24 03:57:09;;;;;;;4.68;3.60;;;;;;;19.76;59.15;100809.50;4970159;28;20121;-65
2022/07/24 03:59:36;;;;;;;4.20;3.20;;;;;;;19.74;58.93;100815.09;4969465;28;20042;-65
2022/07/24 04:02:02;;;;;;;3.78;3.35;;;;;;;19.70;58.82;100816.50;4984912;28;20038;-65
2022/07/24 04:04:27;;;;;;;4.75;3.72;;;;;;;19.67;59.25;100823.09;4969943;28;20039;-65
2022/07/24 04:06:54;;;;;;;5.43;3.80;;;;;;;19.61;60.02;100812.34;4969569;28;20035;-65
2022/07/24 04:09:20;;;;;;;4.75;3.40;;;;;;;19.54;60.05;100812.31;4969769;28;20042;-65
2022/07/24 04:11:46;;;;;;;4.63;3.65;;;;;;;19.49;60.02;100822.84;4966957;28;20043;-65
2022/07/24 04:14:12;;;;;;;3.30;2.90;;;;;;;19.46;60.11;100824.06;4972188;28;20170;-67
2022/07/24 04:16:39;;;;;;;3.67;3.08;;;;;;;19.43;60.13;100827.16;4969211;28;20038;-65
2022/07/24 04:19:05;;;;;;;4.75;3.10;;;;;;;19.40;60.04;100829.41;4984426;28;20035;-65
2022/07/24 04:21:31;;;;;;;4.30;3.15;;;;;;;19.36;60.40;100829.00;4971183;28;20523;-66
2022/07/24 04:23:58;;;;;;;3.80;3.05;;;;;;;19.31;60.56;100823.44;4970822;28;20037;-65
2022/07/24 04:26:24;;;;;;;3.35;2.75;;;;;;;19.28;60.84;100826.50;4969764;28;20496;-66
2022/07/24 04:28:49;;;;;;;4.63;2.92;;;;;;;19.25;60.94;100840.31;4969160;28;20046;-65
2022/07/24 04:31:15;;;;;;;3.78;2.90;;;;;;;19.24;61.30;100836.81;4970811;28;20039;-65
2022/07/24 04:33:41;;;;;;;3.65;3.03;;;;;;;19.22;61.24;100830.81;4969533;28;20034;-65
2022/07/24 04:36:07;;;;;;;4.03;3.33;;;;;;;19.24;61.32;100831.44;4969132;28;20080;-65
2022/07/24 04:38:34;;;;;;;4.50;3.45;;;;;;;19.25;61.52;100830.41;4967991;28;20118;-65
2022/07/24 04:41:02;;;;;;;4.88;4.35;;;;;;;19.26;62.15;100833.94;4972647;28;20126;-65
2022/07/24 04:43:29;;;;;;;6.40;4.53;;;;;;;19.26;62.11;100829.41;4954051;28;20047;-65
2022/07/24 04:45:56;;;;;;;5.97;4.80;;;;;;;19.24;62.64;100828.75;4971039;28;20042;-65
2022/07/24 04:48:22;;;;;;;5.45;4.63;;;;;;;19.25;62.30;100825.03;4969239;28;20496;-65
2022/07/24 04:50:48;;;;;;;5.15;4.10;;;;;;;19.30;62.35;100830.63;4969864;28;20034;-65
2022/07/24 04:53:14;;;;;;;4.60;3.92;;;;;;;19.34;62.23;100819.50;4982876;28;20031;-65
2022/07/24 04:55:40;;;;;;;5.00;4.10;;;;;;;19.35;62.20;100827.34;4969661;28;20031;-65
2022/07/24 04:58:06;;;;;;;6.07;5.15;;;;;;;19.36;62.63;100828.19;4968131;28;20447;-66
2022/07/24 05:00:31;;;;;;;4.72;4.20;;;;;;;19.40;62.56;100832.94;4969419;28;20035;-65
2022/07/24 05:02:56;;;;;;;6.27;4.17;;;;;;;19.44;62.37;100830.66;4968162;28;20039;-65
2022/07/24 05:05:22;;;;;;;5.30;4.07;;;;;;;19.49;62.56;100825.53;4969722;28;20286;-65
2022/07/24 05:07:47;;;;;;;5.07;4.03;;;;;;;19.52;62.73;100834.00;4968889;28;20503;-65
2022/07/24 05:10:12;;;;;;;5.53;3.90;;;;;;;19.57;62.63;100837.91;4969726;28;20030;-66
2022/07/24 05:12:38;;;;;;;5.30;4.22;;;;;;;19.60;62.52;100827.63;4972589;28;20070;-65
2022/07/24 05:15:04;;;;;;;4.57;3.92;;;;;;;19.68;62.45;100830.13;4968297;28;20037;-65
2022/07/24 05:17:30;;;;;;;4.03;3.63;;;;;;;19.76;62.22;100839.00;4968936;28;20039;-65
2022/07/24 05:19:55;;;;;;;3.95;2.97;;;;;;;19.80;62.39;100834.88;4969413;28;20038;-65
2022/07/24 05:22:20;;;;;;;4.25;3.20;;;;;;;19.86;62.27;100837.59;4969029;28;20038;-65
2022/07/24 05:24:45;;;;;;;3.80;3.10;;;;;;;19.96;62.18;100839.03;4968186;28;20495;-65
2022/07/24 05:27:11;;;;;;;4.18;3.30;;;;;;;20.04;61.88;100831.59;4969978;28;20278;-65
2022/07/24 05:29:36;;;;;;;4.18;3.38;;;;;;;20.18;62.26;100842.34;4969300;28;20031;-65
2022/07/24 05:32:01;;;;;;;4.00;3.05;;;;;;;20.32;61.99;100833.22;4969160;28;20066;-65
2022/07/24 05:34:27;;;;;;;5.15;4.00;;;;;;;20.47;61.68;100841.06;4969086;28;20034;-65
2022/07/24 05:36:52;;;;;;;4.97;4.10;;;;;;;20.64;61.26;100839.63;4969373;28;20039;-65
2022/07/24 05:39:17;;;;;;;4.65;3.97;;;;;;;20.84;60.86;100836.88;4967948;28;20070;-65
2022/07/24 05:41:43;;;;;;;5.15;4.43;;;;;;;21.03;60.42;100845.09;4969173;28;20087;-65
2022/07/24 05:44:08;;;;;;;5.82;4.70;;;;;;;21.22;60.15;100846.84;4968440;28;20484;-66
2022/07/24 05:46:33;;;;;;;6.30;4.65;;;;;;;21.45;59.76;100845.50;4970835;28;20046;-66
2022/07/24 05:48:59;;;;;;;6.38;4.57;;;;;;;21.71;58.86;100839.97;4968831;28;20030;-66
2022/07/24 05:51:25;;;;;;;4.80;3.80;;;;;;;22.05;58.95;100848.63;4970275;28;20055;-66
2022/07/24 05:53:50;;;;;;;5.78;4.35;;;;;;;22.47;57.95;100846.19;4967563;28;20038;-66
2022/07/24 05:56:16;;;;;;;5.18;3.75;;;;;;;22.82;57.07;100841.06;4970470;28;20037;-66
2022/07/24 05:58:41;;;;;;;6.83;3.57;;;;;;;23.15;56.82;100849.84;4968977;28;20045;-66
2022/07/24 06:01:06;;;;;;;4.43;3.75;;;;;;;23.47;56.12;100850.44;4968589;28;20802;-66
2022/07/24 06:03:31;;;;;;;4.20;3.70;;;;;;;23.73;55.07;100849.22;4969652;28;20065;-66
2022/07/24 06:05:57;;;;;;;5.07;3.65;;;;;;;24.01;54.72;100845.91;4967991;28;20434;-66
2022/07/24 06:08:22;;;;;;;4.25;3.58;;;;;;;24.34;53.93;100848.03;4967142;28;20066;-66
2022/07/24 06:10:47;;;;;;;4.15;3.45;;;;;;;24.75;53.83;100842.75;4967827;28;20062;-66
2022/07/24 06:13:13;;;;;;;3.67;3.10;;;;;;;25.20;52.20;100852.88;4967371;28;20431;-66
2022/07/24 06:15:38;;;;;;;;;;;;;;;25.39;51.36;100845.41;4969150;28;20043;-66
2022/07/24 06:18:04;;;;;;;3.93;3.40;;;;;;;25.66;50.61;100842.88;4965455;28;20005;-66
2022/07/24 06:20:29;;;;;;;;;;;;;;;25.96;50.50;100845.31;4969237;28;20080;-67
2022/07/24 06:22:54;;;;;;;;;;;;;;;26.19;49.96;100854.34;4966614;28;20370;-67
2022/07/24 06:25:19;;;;;;;;;;;;;;;26.43;49.32;100858.53;4969464;28;20382;-67
2022/07/24 06:27:48;;;;;;;3.97;3.40;;;;;;;26.76;48.92;100862.22;4967699;28;19925;-66
2022/07/24 06:30:14;;;;;;;4.43;3.42;;;;;;;27.06;48.06;100869.13;4966693;28;20122;-67
2022/07/24 06:32:39;;;;;;;3.20;2.90;;;;;;;27.38;47.96;100873.84;4969109;28;20551;-67
2022/07/24 06:35:05;;;;;;;5.03;3.30;;;;;;;27.62;47.13;100877.09;4967964;28;20042;-67
2022/07/24 06:37:30;;;;;;;4.10;2.80;;;;;;;27.95;46.42;100879.59;4967535;28;20554;-67
2022/07/24 06:39:55;;;;;;;4.30;3.30;;;;;;;28.24;45.60;100875.72;4967175;28;20078;-67
2022/07/24 06:42:21;;;;;;;5.55;3.80;;;;;;;28.22;44.75;100870.56;4963293;28;20291;-66
2022/07/24 06:44:46;;;;;;;4.47;3.70;;;;;;;28.39;44.38;100878.56;4946941;28;20035;-67
2022/07/24 06:47:11;;;;;;;5.10;3.70;;;;;;;28.56;43.81;100871.09;4951490;28;20275;-67
2022/07/24 06:49:36;;;;;;;5.63;3.33;;;;;;;28.75;43.59;100870.66;4950223;28;20295;-67
2022/07/24 06:52:02;;;;;;;4.03;3.28;;;;;;;28.95;42.95;100876.16;4948141;29;20287;-68
2022/07/24 06:54:27;;;;;;;4.28;2.88;;;;;;;29.15;43.10;100867.28;4964759;28;20038;-67
2022/07/24 06:56:53;;;;;;;3.47;2.83;;;;;;;29.48;42.91;100865.16;4968865;28;20038;-67
2022/07/24 06:59:18;;;;;;;6.18;4.05;;;;;;;29.78;41.13;100861.69;4967400;28;20290;-67
2022/07/24 07:01:43;;;;;;;4.15;3.42;;;;;;;29.80;41.09;100859.53;4968008;28;20395;-67
2022/07/24 07:04:09;;;;;;;4.13;3.33;;;;;;;29.80;40.83;100856.00;4967306;28;20035;-67
2022/07/24 07:06:34;;;;;;;4.88;3.60;;;;;;;29.80;40.65;100859.53;4968754;28;20340;-67
2022/07/24 07:08:59;;;;;;;6.17;3.60;;;;;;;29.84;39.96;100852.44;4967440;28;20097;-67
2022/07/24 07:11:25;;;;;;;4.25;3.13;;;;;;;29.94;40.36;100853.50;4967926;28;20282;-67
2022/07/24 07:13:50;;;;;;;4.38;3.30;;;;;;;30.11;40.38;100854.06;4966474;28;20035;-67
2022/07/24 07:16:15;;;;;;;3.93;3.30;;;;;;;30.46;39.17;100852.38;4967337;28;20490;-67
2022/07/24 07:18:42;;;;;;;6.05;3.50;;;;;;;30.50;38.54;100847.19;4975940;28;20288;-67
2022/07/24 07:21:07;;;;;;;4.82;3.65;;;;;;;30.54;38.13;100840.09;4968345;28;20071;-67
2022/07/24 07:23:32;;;;;;;4.50;3.67;;;;;;;30.51;37.34;100841.47;4966612;28;20121;-67
2022/07/24 07:25:57;;;;;;;4.30;3.20;;;;;;;30.60;37.33;100853.41;4967737;28;20535;-67
2022/07/24 07:28:23;;;;;;;5.32;3.47;;;;;;;30.87;37.73;100841.38;4965426;28;20041;-67
2022/07/24 07:30:48;;;;;;;4.00;3.23;;;;;;;31.03;37.63;100842.91;4972383;28;20118;-67
2022/07/24 07:33:14;;;;;;;4.07;3.45;;;;;;;31.28;37.21;100838.41;4965792;28;20321;-67
2022/07/24 07:35:39;;;;;;;4.25;3.13;;;;;;;31.55;36.96;100848.91;4973651;28;20122;-67
2022/07/24 07:38:04;;;;;;;5.15;3.72;;;;;;;31.47;36.49;100844.84;4956596;28;20038;-67
2022/07/24 07:40:30;;;;;;;4.57;3.67;;;;;;;31.45;36.48;100847.06;4967167;28;20371;-67
2022/07/24 07:42:55;;;;;;;4.93;3.80;;;;;;;31.67;36.32;100848.53;4966701;28;20046;-67
2022/07/24 07:45:21;;;;;;;5.00;3.72;;;;;;;31.98;35.70;100831.91;4971043;28;20043;-67
2022/07/24 07:47:46;;;;;;;4.22;3.35;;;;;;;32.18;35.55;100834.44;4971857;28;20031;-67
2022/07/24 07:50:12;;;;;;;3.92;3.45;;;;;;;32.46;34.71;100840.97;4961508;28;20035;-67
2022/07/24 07:52:37;;;;;;;3.83;3.13;;;;;;;32.79;35.25;100839.22;4970614;28;20034;-67
2022/07/24 07:55:04;;;;;;;4.22;2.92;;;;;;;33.35;33.28;100834.94;4968393;28;20424;-67
2022/07/24 07:57:29;;;;;;;4.50;2.85;;;;;;;33.75;32.29;100835.44;4970037;28;20416;-67
2022/07/24 07:59:54;;;;;;;3.70;3.10;;;;;;;34.01;31.92;100837.69;4969896;28;20416;-67
2022/07/24 08:02:19;;;;;;;;;;;;;;;34.05;32.33;100842.28;4970412;28;20440;-67
2022/07/24 08:04:45;;;;;;;3.30;2.90;;;;;;;34.33;32.17;100836.88;4971722;28;20008;-67
2022/07/24 08:07:10;;;;;;;3.10;2.80;;;;;;;34.81;31.07;100844.72;4972003;28;20412;-67
2022/07/24 08:09:37;;;;;;;3.63;2.57;;;;;;;35.10;31.01;100841.63;4971973;28;20435;-67
2022/07/24 08:12:02;;;;;;;;;;;;;;;35.02;30.24;100839.59;4971908;28;20424;-68
2022/07/24 08:14:27;;;;;;;;;;;;;;;35.10;29.97;100838.06;4972387;28;20334;-67
2022/07/24 08:16:53;;;;;;;4.50;3.20;;;;;;;35.43;29.67;100838.66;4972177;28;19935;-67
2022/07/24 08:19:18;;;;;;;4.70;3.50;;;;;;;35.52;29.43;100838.75;4971629;28;20443;-67
2022/07/24 08:21:45;;;;;;;5.27;3.77;;;;;;;35.76;28.31;100846.69;4969322;28;20066;-67
2022/07/24 08:24:10;;;;;;;3.60;3.00;;;;;;;35.80;27.75;100846.88;4969393;28;20400;-68
2022/07/24 08:26:36;;;;;;;4.10;3.10;;;;;;;35.72;28.46;100853.94;4969635;28;20109;-67
2022/07/24 08:29:01;;;;;;;4.25;3.50;;;;;;;36.11;27.19;100852.41;4970381;28;20322;-67
2022/07/24 08:31:27;;;;;;;4.50;3.20;;;;;;;36.52;27.75;100849.34;4969994;28;20038;-66
2022/07/24 08:33:52;;;;;;;4.30;3.25;;;;;;;36.81;26.87;100850.75;4970347;28;20039;-66
2022/07/24 08:36:18;;;;;;;3.53;2.35;;;;;;;37.12;26.40;100845.16;4970492;28;20053;-66
2022/07/24 08:38:43;;;;;;;3.83;2.80;;;;;;;37.26;26.02;100841.41;4969196;28;20043;-66
2022/07/24 08:41:08;;;;;;;3.83;2.70;;;;;;;37.23;25.61;100847.56;4969217;28;20795;-66
2022/07/24 08:43:34;;;;;;;4.18;3.17;;;;;;;36.76;25.41;100845.41;4965107;28;20454;-66
2022/07/24 08:46:01;;;;;;;3.13;2.83;;;;;;;36.47;25.81;100844.00;4970138;28;20031;-66
2022/07/24 08:48:26;;;;;;;3.55;2.90;;;;;;;36.69;25.95;100847.81;4969910;28;20061;-66
2022/07/24 08:50:52;;;;;;;3.97;2.85;;;;;;;37.36;25.17;100847.41;4969457;28;20039;-66
2022/07/24 08:53:22;;;;;;;4.85;3.20;;;;;;;37.74;24.74;100840.44;4969769;28;20126;-66
2022/07/24 08:55:48;;;;;;;3.92;3.20;;;;;;;37.56;24.91;100839.63;4969609;28;20031;-66
2022/07/24 08:58:13;;;;;;;4.45;2.90;;;;;;;38.00;25.07;100843.97;4968644;28;20411;-66
2022/07/24 09:00:39;;;;;;;2.88;2.50;;;;;;;38.65;24.72;100836.38;4968688;28;20038;-66
2022/07/24 09:03:04;;;;;;;3.83;3.03;;;;;;;39.12;23.58;100837.34;4970889;28;20035;-66
2022/07/24 09:05:32;;;;;;;4.57;3.40;;;;;;;39.34;22.77;100842.56;4971323;28;20281;-67
2022/07/24 09:08:11;;;;;;;5.00;3.30;;;;;;;39.72;22.18;100833.25;4972231;28;20123;-66
2022/07/24 09:10:37;;;;;;;3.63;2.97;;;;;;;40.24;22.03;100837.41;4969294;28;20126;-67
2022/07/24 09:13:17;;;;;;;3.47;2.60;;;;;;;40.65;22.30;100836.38;4969373;28;20141;-66
2022/07/24 09:15:47;;;;;;;3.85;3.17;;;;;;;40.53;21.55;100836.38;4966573;28;20057;-67
2022/07/24 09:18:26;;;;;;;;;;;;;;;40.45;21.39;100828.97;4969711;28;20065;-66
2022/07/24 09:20:51;;;;;;;5.35;3.47;;;;;;;41.00;20.85;100827.53;4968398;28;19918;-67
2022/07/24 09:23:19;;;;;;;3.77;3.20;;;;;;;41.18;21.09;100828.88;4969858;28;20220;-67
2022/07/24 09:25:50;;;;;;;3.80;3.30;;;;;;;41.29;20.56;100828.41;4969066;28;20290;-66
2022/07/24 09:28:15;;;;;;;5.45;3.60;;;;;;;41.00;20.23;100826.72;4968677;28;20179;-66
2022/07/24 09:30:43;;;;;;;3.75;3.35;;;;;;;40.96;20.39;100826.63;4970033;28;20113;-67
2022/07/24 09:33:11;;;;;;;4.63;3.47;;;;;;;41.14;20.09;100822.44;4968554;28;20039;-67
2022/07/24 09:35:39;;;;;;;5.07;4.18;;;;;;;40.68;19.94;100819.06;4963464;28;20038;-66
2022/07/24 09:38:06;;;;;;;3.83;3.30;;;;;;;40.75;20.75;100821.25;4968072;28;20035;-67
2022/07/24 09:40:40;;;;;;;3.45;3.15;;;;;;;41.38;20.17;100823.47;4961504;28;20030;-67
2022/07/24 09:43:11;;;;;;;3.10;2.80;;;;;;;42.08;19.89;100816.63;4965418;28;20034;-67
2022/07/24 09:46:01;;;;;;;4.13;3.60;;;;;;;42.03;19.32;100814.94;4961033;28;20034;-67
2022/07/24 09:48:28;;;;;;;4.43;3.63;;;;;;;41.54;19.84;100813.25;4963638;28;20034;-67
2022/07/24 09:50:56;;;;;;;3.80;3.40;;;;;;;42.00;19.62;100810.06;4961433;28;20035;-67
2022/07/24 09:53:25;;;;;;;3.90;3.50;;;;;;;42.54;19.22;100811.38;4966584;28;20059;-67
2022/07/24 09:56:08;;;;;;;3.53;3.22;;;;;;;42.20;19.11;100813.75;4961277;28;20049;-67
2022/07/24 09:58:36;;;;;;;3.67;3.17;;;;;;;42.85;19.41;100813.28;4960072;28;20042;-67
2022/07/24 10:01:04;;;;;;;3.50;3.20;;;;;;;43.34;18.72;100815.50;4970576;28;20034;-67
2022/07/24 10:03:33;;;;;;;4.50;3.55;;;;;;;43.36;18.17;100812.34;4970507;28;20129;-67
2022/07/24 10:06:01;;;;;;;4.75;3.90;;;;;;;42.81;18.31;100804.88;4970523;28;20039;-67
2022/07/24 10:08:28;;;;;;;4.25;3.65;;;;;;;42.60;18.42;100801.59;4969323;28;20101;-67
2022/07/24 10:10:54;;;;;;;4.40;3.58;;;;;;;42.70;18.64;100803.81;4970278;28;20031;-67
2022/07/24 10:13:20;;;;;;;3.92;2.90;;;;;;;43.24;18.65;100805.78;4970670;28;20035;-67
2022/07/24 10:15:55;;;;;;;4.68;3.80;;;;;;;43.46;18.25;100803.41;4969257;28;20043;-67
2022/07/24 10:18:24;;;;;;;4.40;4.00;;;;;;;42.87;18.07;100797.03;4966592;28;20034;-67
2022/07/24 10:20:53;;;;;;;4.10;3.70;;;;;;;43.32;18.33;100797.56;4968805;28;20089;-67
2022/07/24 10:23:28;;;;;;;3.67;3.30;;;;;;;44.33;17.99;100797.31;4966912;28;20424;-67
2022/07/24 10:25:56;;;;;;;3.72;3.40;;;;;;;44.35;17.92;100797.75;4966164;28;20298;-67
2022/07/24 10:28:36;;;;;;;4.57;4.03;;;;;;;43.99;18.00;100792.38;4946700;28;20532;-67
2022/07/24 10:31:03;;;;;;;4.93;4.05;;;;;;;43.65;17.67;100795.03;4947586;28;20039;-66
2022/07/24 10:33:29;;;;;;;5.75;4.78;;;;;;;43.99;17.34;100784.03;4946821;28;20062;-67
2022/07/24 10:36:00;;;;;;;5.30;4.80;;;;;;;42.99;17.95;100785.75;4959232;28;20051;-67
2022/07/24 10:38:33;;;;;;;5.18;4.20;;;;;;;42.34;18.98;100786.28;4948933;28;20285;-67
2022/07/24 10:41:05;;;;;;;5.25;4.20;;;;;;;42.91;18.45;100792.38;4963482;28;20522;-67
2022/07/24 10:43:30;;;;;;;5.78;4.50;;;;;;;43.80;17.93;100786.91;4967208;28;20050;-67
2022/07/24 10:45:55;;;;;;;5.72;4.32;;;;;;;44.49;17.14;100784.03;4969966;28;20038;-67
2022/07/24 10:48:21;;;;;;;5.00;3.73;;;;;;;45.07;16.66;100780.78;4969246;28;20046;-67
2022/07/24 10:50:58;;;;;;;4.35;3.95;;;;;;;45.43;16.97;100775.59;4957382;28;20119;-67
2022/07/24 10:53:37;;;;;;;4.22;3.50;;;;;;;46.17;16.30;100763.50;4960683;28;20094;-67
2022/07/24 10:56:34;;;;;;;5.55;3.90;;;;;;;46.74;15.50;100770.59;4977999;28;20042;-67
2022/07/24 10:59:10;;;;;;;4.80;3.97;;;;;;;47.00;15.48;100770.28;4964817;28;20035;-67
2022/07/24 11:01:47;;;;;;;4.95;3.80;;;;;;;47.29;15.17;100758.38;4962525;28;20034;-68
2022/07/24 11:04:18;;;;;;;5.20;4.43;;;;;;;47.44;13.97;100755.19;4966802;28;20035;-67
2022/07/24 11:06:46;;;;;;;5.30;4.15;;;;;;;47.03;14.49;100755.50;4971009;28;20121;-67
2022/07/24 11:09:12;;;;;;;4.80;4.30;;;;;;;47.42;14.19;100751.19;4969702;28;20508;-67
2022/07/24 11:12:02;;;;;;;3.92;3.45;;;;;;;47.29;14.68;100747.16;4971455;28;20035;-67
2022/07/24 11:14:36;;;;;;;;;;;;;;;47.38;14.03;100759.59;4970482;28;20050;-67
2022/07/24 11:17:41;;;;;;;3.80;3.30;;;;;;;47.96;14.35;100743.63;4971544;28;19929;-67
2022/07/24 11:20:15;;;;;;;4.20;3.78;;;;;;;47.76;13.71;100745.22;4969166;28;20066;-69
2022/07/24 11:22:47;;;;;;;4.97;3.90;;;;;;;48.03;14.29;100743.59;4971880;28;20043;-67
2022/07/24 11:25:25;;;;;;;5.03;4.00;;;;;;;48.37;13.42;100737.50;4971516;28;20046;-68
2022/07/24 11:27:56;;;;;;;4.97;4.10;;;;;;;48.62;13.26;100739.44;4966513;28;20031;-68
2022/07/24 11:30:25;;;;;;;4.47;3.40;;;;;;;49.11;13.24;100741.19;4972210;28;20122;-67